Time;durP1;ratioP1;P1;durP2;ratioP2;P2;SDS_P1;SDS_P2;PMS_P1;PMS_P2;Temp;Humidity;BMP_temperature;BMP_pressure;BME280_temperature;BME280_humidity;BME280_pressure;Samples;Min_cycle;Max_cycle;Signal;HPM_P1;HPM_P2
2022/05/13 00:02:26;;;;;;;8.55;4.85;;;;;;;;;;10561026;28;20056;-66
2022/05/13 00:07:28;;;;;;;8.20;4.47;;;;;;;;;;10525387;28;20051;-66
2022/05/13 00:12:33;;;;;;;9.07;4.65;;;;;;;;;;10563485;28;20288;-66
2022/05/13 00:17:37;;;;;;;6.43;4.30;;;;;;;;;;10562877;28;20039;-66
2022/05/13 00:22:44;;;;;;;4.82;4.10;;;;;;;;;;10562958;28;20040;-66
2022/05/13 00:27:47;;;;;;;6.88;4.22;;;;;;;;;;10577896;28;20044;-67
2022/05/13 00:32:50;;;;;;;8.57;4.50;;;;;;;;;;10560429;28;20076;-67
2022/05/13 00:37:53;;;;;;;4.78;4.10;;;;;;;;;;10562237;28;20102;-67
2022/05/13 00:43:00;;;;;;;10.27;4.65;;;;;;;;;;10560669;28;20048;-66
2022/05/13 00:48:04;;;;;;;5.97;4.45;;;;;;;;;;10575479;28;20032;-67
2022/05/13 00:53:07;;;;;;;11.80;4.90;;;;;;;;;;10559949;28;20072;-65
2022/05/13 00:58:15;;;;;;;9.98;5.10;;;;;;;;;;10560527;28;20085;-65
2022/05/13 01:03:20;;;;;;;9.60;5.00;;;;;;;;;;10561541;28;20048;-67
2022/05/13 01:08:23;;;;;;;7.50;5.50;;;;;;;;;;10573811;28;20040;-65
2022/05/13 01:13:28;;;;;;;7.75;4.93;;;;;;;;;;10560953;28;20043;-65
2022/05/13 01:18:34;;;;;;;9.82;5.45;;;;;;;;;;10560573;28;20056;-66
2022/05/13 01:23:41;;;;;;;11.90;5.97;;;;;;;;;;10574353;28;20130;-67
2022/05/13 01:28:47;;;;;;;9.90;5.55;;;;;;;;;;10548919;28;20094;-66
2022/05/13 01:33:49;;;;;;;8.52;5.57;;;;;;;;;;10560022;28;20043;-66
2022/05/13 01:38:55;;;;;;;7.43;5.30;;;;;;;;;;10560661;28;20056;-66
2022/05/13 01:43:58;;;;;;;7.57;5.82;;;;;;;;;;10552707;28;20052;-67
2022/05/13 01:49:01;;;;;;;8.10;6.13;;;;;;;;;;10557884;28;20094;-66
2022/05/13 01:54:05;;;;;;;9.77;5.95;;;;;;;;;;10559181;28;20059;-66
2022/05/13 01:59:07;;;;;;;9.63;6.47;;;;;;;;;;10558618;28;20067;-66
2022/05/13 02:04:10;;;;;;;11.57;6.32;;;;;;;;;;10556767;28;20075;-66
2022/05/13 02:09:14;;;;;;;9.15;6.50;;;;;;;;;;10557118;28;20056;-66
2022/05/13 02:14:18;;;;;;;11.30;6.55;;;;;;;;;;10565250;28;20060;-65
2022/05/13 02:19:20;;;;;;;13.43;7.10;;;;;;;;;;10565418;28;20124;-67
2022/05/13 02:24:24;;;;;;;13.18;7.03;;;;;;;;;;10576452;28;20044;-67
2022/05/13 02:29:26;;;;;;;12.00;7.57;;;;;;;;;;10568954;28;20078;-66
2022/05/13 02:34:28;;;;;;;9.43;6.78;;;;;;;;;;10556304;28;20052;-65
2022/05/13 02:39:32;;;;;;;10.68;6.72;;;;;;;;;;10556742;28;20131;-68
2022/05/13 02:44:35;;;;;;;7.75;6.40;;;;;;;;;;10557202;28;20052;-66
2022/05/13 02:49:37;;;;;;;9.35;6.65;;;;;;;;;;10556095;28;20071;-67
2022/05/13 02:54:41;;;;;;;8.68;7.40;;;;;;;;;;10554981;28;20238;-66
2022/05/13 02:59:43;;;;;;;11.18;7.65;;;;;;;;;;10556165;28;20324;-67
2022/05/13 03:04:46;;;;;;;16.23;7.20;;;;;;;;;;10562855;28;20060;-67
2022/05/13 03:09:49;;;;;;;10.23;6.88;;;;;;;;;;10564656;28;20338;-66
2022/05/13 03:14:51;;;;;;;9.30;6.90;;;;;;;;;;10563187;28;20212;-67
2022/05/13 03:19:54;;;;;;;12.10;7.32;;;;;;;;;;10562367;28;20082;-67
2022/05/13 03:24:58;;;;;;;9.70;7.20;;;;;;;;;;10564581;28;20040;-66
2022/05/13 03:30:00;;;;;;;8.93;6.70;;;;;;;;;;10563248;28;20048;-66
2022/05/13 03:35:05;;;;;;;10.20;7.15;;;;;;;;;;10559650;28;20043;-66
2022/05/13 03:40:11;;;;;;;7.43;5.78;;;;;;;;;;10562209;28;20071;-66
2022/05/13 03:45:15;;;;;;;11.18;6.20;;;;;;;;;;10558748;28;21230;-66
2022/05/13 03:50:18;;;;;;;8.10;5.82;;;;;;;;;;10521825;28;20045;-66
2022/05/13 03:55:22;;;;;;;8.27;5.28;;;;;;;;;;10561340;28;20055;-67
2022/05/13 04:00:25;;;;;;;8.13;5.45;;;;;;;;;;10561621;28;20047;-66
2022/05/13 04:10:49;;;;;;;5.20;4.60;;;;;;;;;;10575434;28;20058;-67
2022/05/13 04:16:06;;;;;;;6.63;4.68;;;;;;;;;;10561495;28;20052;-66
2022/05/13 04:21:11;;;;;;;5.50;3.70;;;;;;;;;;10561820;28;20051;-66
2022/05/13 04:26:15;;;;;;;4.43;3.40;;;;;;;;;;10562096;28;20055;-67
2022/05/13 04:31:20;;;;;;;5.63;3.10;;;;;;;;;;10558079;28;20382;-67
2022/05/13 04:36:24;;;;;;;4.15;2.53;;;;;;;;;;10574905;28;20054;-67
2022/05/13 04:46:49;;;;;;;2.80;2.58;;;;;;;;;;10568158;28;20227;-67
2022/05/13 04:51:52;;;;;;;7.63;3.05;;;;;;;;;;10547951;28;20036;-66
2022/05/13 04:56:55;;;;;;;10.05;2.70;;;;;;;;;;10553612;28;20304;-67
2022/05/13 05:01:58;;;;;;;4.60;2.25;;;;;;;;;;10540268;28;20051;-67
2022/05/13 05:07:00;;;;;;;16.17;12.70;;;;;;;;;;10558323;28;20040;-67
2022/05/13 05:12:05;;;;;;;7.07;2.83;;;;;;;;;;10548721;28;20068;-67
2022/05/13 05:17:07;;;;;;;6.25;3.60;;;;;;;;;;10552522;28;20036;-68
2022/05/13 05:22:10;;;;;;;10.25;4.43;;;;;;;;;;10535989;28;20349;-66
2022/05/13 05:27:13;;;;;;;6.32;2.38;;;;;;;;;;10549489;28;20067;-67
2022/05/13 05:32:16;;;;;;;8.38;1.70;;;;;;;;;;10541934;28;20059;-68
2022/05/13 05:37:18;;;;;;;9.82;2.22;;;;;;;;;;10557149;28;20151;-67
2022/05/13 05:42:22;;;;;;;6.32;1.60;;;;;;;;;;10533529;28;20090;-67
2022/05/13 05:47:25;;;;;;;5.88;2.03;;;;;;;;;;10549916;28;20040;-67
2022/05/13 05:52:27;;;;;;;3.15;1.65;;;;;;;;;;10539263;28;20157;-67
2022/05/13 05:57:31;;;;;;;4.47;1.90;;;;;;;;;;10548527;28;20086;-67
2022/05/13 06:02:33;;;;;;;7.57;1.98;;;;;;;;;;10547539;28;20070;-68
2022/05/13 06:07:35;;;;;;;4.10;1.70;;;;;;;;;;10546390;28;20239;-67
2022/05/13 06:12:39;;;;;;;6.18;1.63;;;;;;;;;;10537739;28;20052;-67
2022/05/13 06:17:45;;;;;;;5.93;1.35;;;;;;;;;;10536273;28;20044;-67
2022/05/13 06:22:48;;;;;;;4.97;1.60;;;;;;;;;;10550159;28;20055;-67
2022/05/13 06:27:54;;;;;;;7.93;1.88;;;;;;;;;;10555320;28;20059;-66
2022/05/13 06:32:56;;;;;;;5.72;1.77;;;;;;;;;;10555408;28;20067;-66
2022/05/13 06:37:58;;;;;;;5.35;1.80;;;;;;;;;;10556910;28;20071;-67
2022/05/13 06:43:03;;;;;;;5.38;1.98;;;;;;;;;;10555397;28;20332;-67
2022/05/13 06:48:06;;;;;;;6.28;2.03;;;;;;;;;;10555961;28;20059;-67
2022/05/13 06:53:08;;;;;;;8.18;2.22;;;;;;;;;;10556185;28;20062;-66
2022/05/13 06:58:13;;;;;;;7.97;2.53;;;;;;;;;;10555606;28;20340;-67
2022/05/13 07:03:17;;;;;;;5.90;3.03;;;;;;;;;;10551878;28;20048;-67
2022/05/13 07:08:19;;;;;;;4.22;2.53;;;;;;;;;;10548973;28;20036;-67
2022/05/13 07:13:23;;;;;;;;;;;;;;;;;;10556833;28;20342;-67
2022/05/13 07:18:25;;;;;;;5.97;2.35;;;;;;;;;;10556690;28;19943;-67
2022/05/13 07:23:27;;;;;;;;;;;;;;;;;;10529071;28;20052;-67
2022/05/13 07:28:31;;;;;;;6.32;3.55;;;;;;;;;;10555478;28;19948;-68
2022/05/13 07:33:34;;;;;;;5.35;4.95;;;;;;;;;;10555613;28;20086;-67
2022/05/13 07:41:16;;;;;;;7.05;6.57;;;;;;;;;;10538753;28;20075;-67
2022/05/13 07:44:00;;;;;;;8.80;8.10;;;;;;;;;;10534940;28;20579;-67
2022/05/13 07:49:02;;;;;;;10.43;9.68;;;;;;;;;;10559672;28;20089;-67
2022/05/13 07:54:04;;;;;;;12.30;11.80;;;;;;;;;;10559631;28;20098;-67
2022/05/13 07:59:08;;;;;;;14.85;14.15;;;;;;;;;;10527062;28;20048;-67
2022/05/13 08:04:11;;;;;;;16.90;16.10;;;;;;;;;;10561981;28;20044;-67
2022/05/13 08:09:14;;;;;;;18.90;18.00;;;;;;;;;;10563082;28;20055;-67
2022/05/13 08:14:17;;;;;;;21.27;20.17;;;;;;;;;;10558200;28;20113;-67
2022/05/13 08:19:19;;;;;;;25.13;23.83;;;;;;;;;;10562445;28;20052;-67
2022/05/13 08:24:22;;;;;;;29.70;28.10;;;;;;;;;;10554556;28;20299;-68
2022/05/13 08:29:26;;;;;;;34.92;33.03;;;;;;;;;;10534143;28;20117;-67
2022/05/13 08:34:28;;;;;;;42.03;39.63;;;;;;;;;;10560625;28;20087;-67
2022/05/13 08:39:30;;;;;;;45.40;42.80;;;;;;;;;;10559799;28;20093;-67
2022/05/13 08:44:34;;;;;;;37.75;35.65;;;;;;;;;;10560623;28;20097;-67
2022/05/13 08:49:51;;;;;;;27.77;26.27;;;;;;;;;;10552268;28;20051;-67
2022/05/13 08:54:54;;;;;;;37.35;35.25;;;;;;;;;;10547060;28;20051;-68
2022/05/13 09:00:01;;;;;;;44.58;41.97;;;;;;;;;;10561989;28;20288;-67
2022/05/13 09:05:15;;;;;;;32.22;30.48;;;;;;;;;;10572979;28;20063;-77
2022/05/13 09:10:18;;;;;;;8.75;8.45;;;;;;;;;;10573318;28;20048;-67
2022/05/13 09:15:27;;;;;;;0.70;0.70;;;;;;;;;;10555880;28;20402;-68
2022/05/13 09:20:29;;;;;;;6.57;1.60;;;;;;;;;;10572077;28;20036;-67
2022/05/13 09:25:42;;;;;;;4.88;1.30;;;;;;;;;;10521767;28;20072;-68
2022/05/13 09:30:49;;;;;;;7.65;1.58;;;;;;;;;;10528726;28;20059;-67
2022/05/13 09:35:54;;;;;;;6.82;1.60;;;;;;;;;;10573082;28;20240;-69
2022/05/13 09:41:00;;;;;;;7.93;1.52;;;;;;;;;;10554871;28;20071;-66
2022/05/13 09:46:07;;;;;;;6.60;1.70;;;;;;;;;;10572613;28;20292;-67
2022/05/13 09:51:30;;;;;;;3.38;1.85;;;;;;;;;;10590487;28;20059;-67
2022/05/13 09:56:38;;;;;;;12.82;1.83;;;;;;;;;;10571618;28;20067;-67
2022/05/13 10:01:42;;;;;;;10.73;1.85;;;;;;;;;;10559244;28;20040;-67
2022/05/13 10:06:44;;;;;;;6.20;1.80;;;;;;;;;;10557423;28;20338;-68
2022/05/13 10:17:13;;;;;;;6.25;1.75;;;;;;;;;;10572684;28;20116;-68
2022/05/13 10:22:22;;;;;;;5.32;1.85;;;;;;;;;;10555537;28;20048;-69
2022/05/13 10:27:31;;;;;;;17.27;2.88;;;;;;;;;;10557807;28;20121;-68
2022/05/13 10:32:45;;;;;;;10.48;2.47;;;;;;;;;;10571345;28;20082;-69
2022/05/13 10:38:03;;;;;;;8.88;2.20;;;;;;;;;;10556457;28;20272;-69
2022/05/13 10:43:12;;;;;;;8.93;1.75;;;;;;;;;;10556353;28;20128;-71
2022/05/13 10:48:26;;;;;;;4.30;2.00;;;;;;;;;;10571291;28;20243;-70
2022/05/13 10:58:46;;;;;;;6.15;2.03;;;;;;;;;;12389085;22;20151;-69
2022/05/13 11:03:59;;;;;;;4.55;1.83;;;;;;;;;;10475359;28;20076;-70
2022/05/13 11:09:09;;;;;;;5.72;1.90;;;;;;;;;;10479000;28;20045;-69
2022/05/13 11:14:23;;;;;;;9.27;2.20;;;;;;;;;;10489342;28;20083;-71
2022/05/13 11:19:33;;;;;;;6.28;1.67;;;;;;;;;;10489318;28;20345;-69
2022/05/13 11:30:17;;;;;;;9.18;2.35;;;;;;;;;;10481536;28;20064;-69
2022/05/13 11:35:40;;;;;;;8.93;2.63;;;;;;;;;;10482527;28;20079;-68
2022/05/13 11:40:49;;;;;;;5.63;2.00;;;;;;;;;;10494541;28;20098;-70
2022/05/13 11:46:35;;;;;;;5.85;1.90;;;;;;;;;;10481090;28;20377;-71
2022/05/13 11:51:39;;;;;;;6.60;2.05;;;;;;;;;;10472814;28;20318;-70
2022/05/13 11:56:43;;;;;;;7.57;2.20;;;;;;;;;;10479983;28;20113;-71
2022/05/13 12:02:10;;;;;;;6.72;2.20;;;;;;;;;;10467950;28;20049;-69
2022/05/13 12:07:28;;;;;;;5.63;2.08;;;;;;;;;;10438812;28;20324;-70
2022/05/13 12:12:58;;;;;;;9.93;1.92;;;;;;;;;;10474174;28;20037;-72
2022/05/13 12:18:08;;;;;;;10.90;2.03;;;;;;;;;;10444704;28;20095;-71
2022/05/13 12:23:20;;;;;;;10.40;2.33;;;;;;;;;;10448049;28;20041;-71
2022/05/13 12:28:24;;;;;;;;;;;;;;;;;;10450649;28;20065;-70
2022/05/13 12:33:38;;;;;;;9.40;2.08;;;;;;;;;;10441077;28;19955;-68
2022/05/13 12:39:06;;;;;;;8.63;1.98;;;;;;;;;;10447009;28;20062;-68
2022/05/13 12:44:13;;;;;;;5.43;2.08;;;;;;;;;;10476728;28;20107;-69
2022/05/13 12:49:20;;;;;;;5.97;2.33;;;;;;;;;;10460116;28;20065;-69
2022/05/13 12:54:27;;;;;;;8.88;2.60;;;;;;;;;;10397535;28;20057;-68
2022/05/13 12:59:32;;;;;;;11.57;2.47;;;;;;;;;;10445643;28;20057;-69
2022/05/13 13:04:45;;;;;;;25.05;6.00;;;;;;;;;;10430803;28;20344;-68
2022/05/13 13:09:51;;;;;;;11.38;2.72;;;;;;;;;;10428705;28;20439;-71
2022/05/13 13:15:00;;;;;;;11.10;2.75;;;;;;;;;;10459492;28;20076;-68
2022/05/13 13:20:06;;;;;;;7.97;2.38;;;;;;;;;;10486845;28;20087;-67
2022/05/13 13:25:26;;;;;;;31.02;4.28;;;;;;;;;;10491482;28;20223;-68
2022/05/13 13:30:30;;;;;;;13.02;2.65;;;;;;;;;;10477703;28;20068;-69
2022/05/13 13:35:34;;;;;;;17.58;2.72;;;;;;;;;;10460750;28;20068;-66
2022/05/13 13:40:43;;;;;;;5.07;2.05;;;;;;;;;;10457713;28;20096;-68
2022/05/13 13:45:49;;;;;;;4.85;2.38;;;;;;;;;;10490422;28;20044;-68
2022/05/13 13:50:53;;;;;;;19.77;4.90;;;;;;;;;;10430757;28;20053;-68
2022/05/13 13:56:01;;;;;;;6.45;2.75;;;;;;;;;;10470706;28;20045;-68
2022/05/13 14:01:10;;;;;;;7.78;3.70;;;;;;;;;;10473499;28;20076;-69
2022/05/13 14:06:16;;;;;;;5.80;2.30;;;;;;;;;;10468929;28;20053;-67
2022/05/13 14:11:23;;;;;;;6.70;2.40;;;;;;;;;;10489190;28;20056;-67
2022/05/13 14:16:27;;;;;;;4.53;2.33;;;;;;;;;;10467530;28;20068;-69
2022/05/13 14:21:30;;;;;;;5.05;2.20;;;;;;;;;;10439425;28;20060;-69
2022/05/13 14:26:47;;;;;;;;;;;;;;;;;;10437154;28;20046;-67
2022/05/13 14:31:54;;;;;;;7.13;2.35;;;;;;;;;;10468598;28;20233;-67
2022/05/13 14:37:00;;;;;;;6.50;3.47;;;;;;;;;;10459497;28;20127;-70
2022/05/13 14:42:10;;;;;;;7.80;2.97;;;;;;;;;;10445234;28;20115;-68
2022/05/13 14:47:20;;;;;;;5.93;2.58;;;;;;;;;;10451266;28;20042;-68
2022/05/13 14:52:28;;;;;;;6.80;2.33;;;;;;;;;;10450287;28;20108;-67
2022/05/13 14:57:36;;;;;;;5.47;2.20;;;;;;;;;;10494622;28;20033;-67
2022/05/13 15:02:45;;;;;;;7.97;2.80;;;;;;;;;;10480274;28;20295;-68
2022/05/13 15:07:47;;;;;;;4.97;2.45;;;;;;;;;;10449281;28;20247;-67
2022/05/13 15:12:52;;;;;;;7.07;2.37;;;;;;;;;;10468172;28;20045;-67
2022/05/13 15:18:01;;;;;;;11.77;2.13;;;;;;;;;;10485054;28;20358;-67
2022/05/13 15:23:03;;;;;;;5.88;2.00;;;;;;;;;;10482373;28;20053;-68
2022/05/13 15:28:07;;;;;;;12.93;3.92;;;;;;;;;;10478516;28;20041;-68
2022/05/13 15:33:09;;;;;;;4.40;2.70;;;;;;;;;;10477019;28;20042;-67
2022/05/13 15:38:13;;;;;;;11.30;2.90;;;;;;;;;;10442355;28;20056;-69
2022/05/13 15:43:17;;;;;;;11.35;3.42;;;;;;;;;;10454479;28;20045;-70
2022/05/13 15:48:19;;;;;;;162.07;13.23;;;;;;;;;;10483871;28;20049;-71
2022/05/13 15:53:22;;;;;;;35.78;8.77;;;;;;;;;;10483251;28;20045;-68
2022/05/13 15:58:34;;;;;;;13.77;8.52;;;;;;;;;;10464061;28;20049;-68
2022/05/13 16:03:38;;;;;;;12.85;9.20;;;;;;;;;;10482683;28;20068;-66
2022/05/13 16:08:40;;;;;;;14.88;9.52;;;;;;;;;;10481059;28;20244;-67
2022/05/13 16:13:47;;;;;;;21.88;9.98;;;;;;;;;;10477045;28;20083;-67
2022/05/13 16:18:51;;;;;;;10.48;9.25;;;;;;;;;;10482863;28;20226;-67
2022/05/13 16:23:54;;;;;;;18.27;10.68;;;;;;;;;;10482152;28;20048;-67
2022/05/13 16:28:58;;;;;;;11.40;10.30;;;;;;;;;;10476677;28;20091;-66
2022/05/13 16:34:00;;;;;;;12.60;10.97;;;;;;;;;;10482735;28;20063;-67
2022/05/13 16:39:03;;;;;;;17.08;10.50;;;;;;;;;;10481059;28;20041;-67
2022/05/13 16:44:08;;;;;;;12.70;11.40;;;;;;;;;;10461915;28;20084;-67
2022/05/13 16:49:11;;;;;;;22.13;12.93;;;;;;;;;;10448183;28;20037;-71
2022/05/13 16:54:14;;;;;;;15.07;11.48;;;;;;;;;;10437721;28;20259;-68
2022/05/13 16:59:18;;;;;;;17.77;10.65;;;;;;;;;;10461604;28;20048;-68
2022/05/13 17:04:20;;;;;;;36.63;18.45;;;;;;;;;;10449926;28;20044;-69
2022/05/13 17:20:05;;;;;;;11.52;5.13;;;;;;;;;;10465458;28;20037;-68
2022/05/13 17:25:09;;;;;;;12.90;4.50;;;;;;;;;;10464431;28;20041;-68
2022/05/13 17:30:14;;;;;;;20.77;6.63;;;;;;;;;;10469871;28;20048;-68
2022/05/13 17:35:18;;;;;;;;;;;;;;;;;;10464505;28;20084;-68
2022/05/13 17:40:23;;;;;;;10.55;2.25;;;;;;;;;;10467244;28;20231;-68
2022/05/13 17:45:28;;;;;;;3.78;2.17;;;;;;;;;;10480641;28;20044;-68
2022/05/13 17:50:30;;;;;;;6.47;2.50;;;;;;;;;;10471408;28;20363;-68
2022/05/13 17:55:32;;;;;;;3.70;2.75;;;;;;;;;;10435043;28;20049;-68
2022/05/13 18:00:37;;;;;;;7.57;2.67;;;;;;;;;;10433131;28;20280;-67
2022/05/13 18:05:40;;;;;;;10.25;3.00;;;;;;;;;;10476187;28;20076;-68
2022/05/13 18:10:44;;;;;;;10.75;4.45;;;;;;;;;;10434387;28;20068;-67
2022/05/13 18:15:47;;;;;;;62.50;29.50;;;;;;;;;;10401872;28;20048;-67
2022/05/13 18:20:50;;;;;;;7.03;4.03;;;;;;;;;;10416697;28;20041;-67
2022/05/13 18:25:52;;;;;;;6.95;3.30;;;;;;;;;;10456577;28;20238;-68
2022/05/13 18:30:58;;;;;;;7.82;3.75;;;;;;;;;;10432708;28;20057;-67
2022/05/13 18:36:00;;;;;;;5.05;3.40;;;;;;;;;;10438632;28;20064;-66
2022/05/13 18:46:29;;;;;;;18.55;9.73;;;;;;;;;;10407766;28;20049;-68
2022/05/13 18:51:32;;;;;;;13.43;6.68;;;;;;;;;;10434755;28;20049;-67
2022/05/13 18:56:38;;;;;;;6.47;5.65;;;;;;;;;;10434199;28;20038;-67
2022/05/13 19:01:42;;;;;;;6.05;4.57;;;;;;;;;;10453370;28;20255;-67
2022/05/13 19:06:46;;;;;;;7.93;4.70;;;;;;;;;;10461746;28;20045;-67
2022/05/13 19:11:49;;;;;;;7.05;5.15;;;;;;;;;;10443651;28;20096;-67
2022/05/13 19:16:52;;;;;;;8.25;5.10;;;;;;;;;;10432648;28;20359;-67
2022/05/13 19:21:55;;;;;;;13.80;5.68;;;;;;;;;;10433816;28;20057;-67
2022/05/13 19:26:57;;;;;;;9.77;5.65;;;;;;;;;;10404041;28;20046;-66
2022/05/13 19:32:01;;;;;;;7.53;5.63;;;;;;;;;;10431631;28;20049;-67
2022/05/13 19:37:03;;;;;;;14.60;7.28;;;;;;;;;;10433993;28;20052;-68
2022/05/13 19:42:06;;;;;;;11.40;6.25;;;;;;;;;;10434061;28;20241;-67
2022/05/13 19:47:10;;;;;;;8.50;5.70;;;;;;;;;;10438413;28;20355;-67
2022/05/13 19:52:12;;;;;;;10.80;7.60;;;;;;;;;;10431425;28;20115;-68
2022/05/13 19:57:15;;;;;;;17.73;11.30;;;;;;;;;;10441401;28;20048;-67
2022/05/13 20:02:19;;;;;;;17.52;9.93;;;;;;;;;;10479365;28;20072;-68
2022/05/13 20:12:41;;;;;;;35.22;20.38;;;;;;;;;;10462073;28;20049;-67
2022/05/13 20:17:45;;;;;;;30.50;18.60;;;;;;;;;;10461178;28;20053;-66
2022/05/13 20:23:02;;;;;;;23.70;13.88;;;;;;;;;;10434473;28;20049;-67
2022/05/13 20:28:05;;;;;;;25.38;14.18;;;;;;;;;;10474083;28;20037;-68
2022/05/13 20:33:09;;;;;;;23.00;12.38;;;;;;;;;;10439209;28;20041;-67
2022/05/13 20:38:12;;;;;;;19.80;11.38;;;;;;;;;;10448430;28;20049;-68
2022/05/13 20:43:15;;;;;;;20.05;11.23;;;;;;;;;;10459755;28;20064;-67
2022/05/13 20:48:19;;;;;;;21.95;11.63;;;;;;;;;;10421658;28;20045;-66
2022/05/13 20:53:22;;;;;;;15.00;9.37;;;;;;;;;;10433256;28;20040;-66
2022/05/13 20:58:24;;;;;;;14.00;8.13;;;;;;;;;;10475607;28;20055;-67
2022/05/13 21:03:28;;;;;;;15.35;8.57;;;;;;;;;;10488211;28;20041;-66
2022/05/13 21:08:31;;;;;;;11.45;8.50;;;;;;;;;;10450775;28;20143;-67
2022/05/13 21:13:33;;;;;;;16.95;9.68;;;;;;;;;;10478713;28;20037;-66
2022/05/13 21:18:37;;;;;;;16.45;9.60;;;;;;;;;;10469865;28;20080;-67
2022/05/13 21:23:39;;;;;;;13.30;9.40;;;;;;;;;;10456877;28;20079;-67
2022/05/13 21:28:42;;;;;;;13.18;9.13;;;;;;;;;;10478366;28;20370;-66
2022/05/13 21:39:08;;;;;;;14.02;8.27;;;;;;;;;;10491646;28;20079;-66
2022/05/13 21:44:10;;;;;;;9.18;8.10;;;;;;;;;;10442155;28;20041;-68
2022/05/13 21:49:15;;;;;;;11.38;7.68;;;;;;;;;;10433821;28;20356;-67
2022/05/13 21:54:17;;;;;;;16.20;7.72;;;;;;;;;;10435624;28;20107;-67
2022/05/13 21:59:20;;;;;;;12.60;8.63;;;;;;;;;;10460909;28;20244;-67
2022/05/13 22:04:24;;;;;;;13.63;8.27;;;;;;;;;;10474889;28;20068;-66
2022/05/13 22:09:27;;;;;;;13.20;7.93;;;;;;;;;;10438774;28;20212;-66
2022/05/13 22:14:29;;;;;;;9.88;7.68;;;;;;;;;;10432311;28;20092;-66
2022/05/13 22:19:33;;;;;;;11.65;7.70;;;;;;;;;;10435343;28;20096;-67
2022/05/13 22:24:35;;;;;;;11.73;7.68;;;;;;;;;;10433652;28;20283;-67
2022/05/13 22:29:37;;;;;;;13.13;7.82;;;;;;;;;;10434142;28;20061;-67
2022/05/13 22:34:41;;;;;;;14.55;7.60;;;;;;;;;;10432555;28;20064;-66
2022/05/13 22:39:43;;;;;;;12.90;8.55;;;;;;;;;;10409374;28;20057;-66
2022/05/13 22:44:45;;;;;;;16.88;8.90;;;;;;;;;;10465932;28;20045;-66
2022/05/13 22:49:50;;;;;;;11.57;8.60;;;;;;;;;;10441086;28;20042;-66
2022/05/13 22:54:53;;;;;;;15.50;9.63;;;;;;;;;;10408930;28;20045;-66
2022/05/13 22:59:56;;;;;;;12.82;9.30;;;;;;;;;;10431568;28;20057;-67
2022/05/13 23:05:00;;;;;;;15.25;9.75;;;;;;;;;;10446696;28;20041;-65
2022/05/13 23:15:23;;;;;;;17.52;11.35;;;;;;;;;;10432114;28;20064;-66
2022/05/13 23:20:27;;;;;;;16.95;11.48;;;;;;;;;;10455662;28;20351;-66
2022/05/13 23:25:30;;;;;;;18.08;12.05;;;;;;;;;;10454970;28;20069;-66
2022/05/13 23:30:32;;;;;;;16.20;11.77;;;;;;;;;;10439201;28;20139;-66
2022/05/13 23:35:36;;;;;;;16.77;10.85;;;;;;;;;;10417777;28;20229;-65
2022/05/13 23:40:39;;;;;;;14.02;9.80;;;;;;;;;;10429656;28;20076;-65
2022/05/13 23:45:41;;;;;;;15.95;10.27;;;;;;;;;;10439314;28;20077;-66
2022/05/13 23:50:45;;;;;;;15.95;9.75;;;;;;;;;;10439399;28;20056;-66
2022/05/13 23:56:00;;;;;;;15.25;9.50;;;;;;;;;;10438203;28;20053;-65
